Time;durP1;ratioP1;P1;durP2;ratioP2;P2;SDS_P1;SDS_P2;PMS_P1;PMS_P2;Temp;Humidity;BMP_temperature;BMP_pressure;BME280_temperature;BME280_humidity;BME280_pressure;Samples;Min_cycle;Max_cycle;Signal;HPM_P1;HPM_P2
2023/12/29 00:02:12;;;;;;;12.60;1.60;;;10.80;96.30;;;;;;6281022;22;20445;-73
2023/12/29 00:04:39;;;;;;;6.75;1.05;;;10.90;96.40;;;;;;6311017;22;20010;-73
2023/12/29 00:07:06;;;;;;;7.57;2.40;;;10.90;95.90;;;;;;6310954;22;20432;-73
2023/12/29 00:09:38;;;;;;;7.80;1.00;;;11.00;95.70;;;;;;6285250;22;20026;-73
2023/12/29 00:12:05;;;;;;;6.60;1.30;;;11.10;95.60;;;;;;6312340;22;20022;-73
2023/12/29 00:14:33;;;;;;;8.68;1.10;;;11.10;95.50;;;;;;6285091;22;20033;-73
2023/12/29 00:17:00;;;;;;;6.85;1.48;;;11.10;95.40;;;;;;6284998;22;20018;-73
2023/12/29 00:19:27;;;;;;;5.72;1.02;;;11.10;95.30;;;;;;6285186;22;20020;-73
2023/12/29 00:21:54;;;;;;;5.40;1.08;;;11.20;95.20;;;;;;6311087;22;20018;-73
2023/12/29 00:24:21;;;;;;;4.00;0.90;;;11.20;95.30;;;;;;6338185;22;20071;-73
2023/12/29 00:26:48;;;;;;;6.18;0.77;;;11.20;95.20;;;;;;6338422;22;20429;-73
2023/12/29 00:29:15;;;;;;;7.55;1.30;;;11.30;95.10;;;;;;6285295;22;20018;-73
2023/12/29 00:31:42;;;;;;;6.55;0.77;;;11.30;95.10;;;;;;6259589;22;20014;-73
2023/12/29 00:34:09;;;;;;;5.68;1.20;;;11.10;95.50;;;;;;6280448;22;20080;-74
2023/12/29 00:36:37;;;;;;;6.65;1.55;;;10.80;96.30;;;;;;6310828;22;20453;-74
2023/12/29 00:39:04;;;;;;;4.25;1.00;;;10.60;96.80;;;;;;6337979;22;20040;-73
2023/12/29 00:41:32;;;;;;;6.03;1.17;;;10.50;97.30;;;;;;6285233;22;20022;-73
2023/12/29 00:43:59;;;;;;;7.05;1.25;;;10.40;97.70;;;;;;6285077;22;20072;-72
2023/12/29 00:46:26;;;;;;;6.00;0.88;;;10.40;98.00;;;;;;6310704;22;20036;-72
2023/12/29 00:48:53;;;;;;;4.45;0.80;;;10.30;98.20;;;;;;6284902;22;20029;-73
2023/12/29 00:51:20;;;;;;;5.00;1.00;;;10.30;98.40;;;;;;6285445;22;20445;-73
2023/12/29 00:53:47;;;;;;;5.82;0.98;;;10.30;98.50;;;;;;6310782;22;20022;-73
2023/12/29 00:56:14;;;;;;;4.90;0.95;;;10.40;98.50;;;;;;6336775;22;20030;-76
2023/12/29 00:58:41;;;;;;;6.30;1.35;;;10.40;98.40;;;;;;6311116;22;20030;-76
2023/12/29 01:01:11;;;;;;;6.18;0.85;;;10.50;98.20;;;;;;6311129;22;20015;-76
2023/12/29 01:03:38;;;;;;;5.22;0.80;;;10.60;98.00;;;;;;6310782;22;20025;-76
2023/12/29 01:06:06;;;;;;;6.00;1.10;;;10.70;97.80;;;;;;6281523;22;20019;-76
2023/12/29 01:08:33;;;;;;;5.10;1.00;;;10.70;97.70;;;;;;6292512;22;20445;-76
2023/12/29 01:11:00;;;;;;;7.03;1.27;;;10.80;97.50;;;;;;6296136;22;20029;-75
2023/12/29 01:13:27;;;;;;;3.33;0.90;;;10.90;97.30;;;;;;6320617;22;20022;-76
2023/12/29 01:15:55;;;;;;;6.32;1.13;;;11.00;97.30;;;;;;6288716;22;20441;-77
2023/12/29 01:18:22;;;;;;;5.03;1.15;;;11.00;96.90;;;;;;6287855;22;20029;-77
2023/12/29 01:20:49;;;;;;;8.57;1.27;;;11.00;96.90;;;;;;6287600;22;20442;-76
2023/12/29 01:23:17;;;;;;;4.40;1.17;;;11.00;96.80;;;;;;6283941;22;20081;-76
2023/12/29 01:25:44;;;;;;;6.22;0.70;;;11.10;96.80;;;;;;6287411;22;20041;-76
2023/12/29 01:28:11;;;;;;;5.82;1.13;;;11.10;96.70;;;;;;6313280;22;20022;-76
2023/12/29 01:30:38;;;;;;;7.95;0.90;;;11.10;96.80;;;;;;6287114;22;20026;-76
2023/12/29 01:33:06;;;;;;;5.25;0.88;;;11.10;96.80;;;;;;6313053;22;20064;-76
2023/12/29 01:35:33;;;;;;;5.90;0.85;;;11.00;97.00;;;;;;6312401;22;20030;-76
2023/12/29 01:38:00;;;;;;;3.92;0.82;;;11.00;97.40;;;;;;6340040;22;20049;-77
2023/12/29 01:40:28;;;;;;;3.50;0.70;;;11.00;97.20;;;;;;6286896;22;20037;-76
2023/12/29 01:42:56;;;;;;;4.70;0.93;;;11.00;97.30;;;;;;6313112;22;20072;-76
2023/12/29 01:45:25;;;;;;;5.85;1.15;;;11.00;97.30;;;;;;6312642;22;20019;-76
2023/12/29 01:47:53;;;;;;;8.35;1.92;;;11.00;97.50;;;;;;6281727;22;20019;-77
2023/12/29 01:50:23;;;;;;;5.78;1.00;;;10.90;97.30;;;;;;6284763;22;20068;-76
2023/12/29 01:52:52;;;;;;;11.88;1.83;;;11.00;97.30;;;;;;6312146;22;20018;-76
2023/12/29 01:55:21;;;;;;;5.35;1.90;;;10.90;97.40;;;;;;6311907;22;20022;-77
2023/12/29 01:57:50;;;;;;;5.88;0.80;;;11.00;97.40;;;;;;6312239;22;20110;-76
2023/12/29 02:00:18;;;;;;;7.45;0.90;;;10.90;97.40;;;;;;6286528;22;20031;-76
2023/12/29 02:02:49;;;;;;;7.03;1.23;;;10.90;97.40;;;;;;6281666;22;20022;-76
2023/12/29 02:05:20;;;;;;;8.05;0.90;;;10.90;97.40;;;;;;6309096;22;20452;-76
2023/12/29 02:07:49;;;;;;;5.65;0.65;;;10.90;97.40;;;;;;6311858;22;20374;-76
2023/12/29 02:10:18;;;;;;;5.20;0.95;;;11.00;97.40;;;;;;6339465;22;20038;-76
2023/12/29 02:12:57;;;;;;;6.20;0.95;;;11.00;97.40;;;;;;6280944;22;20102;-76
2023/12/29 02:15:24;;;;;;;7.90;1.10;;;11.00;97.40;;;;;;6261559;22;20404;-76
2023/12/29 02:18:00;;;;;;;5.70;0.70;;;10.90;97.50;;;;;;6286245;22;20027;-76
2023/12/29 02:20:28;;;;;;;4.30;1.13;;;10.90;97.60;;;;;;6311864;22;20057;-76
2023/12/29 02:22:55;;;;;;;6.22;1.15;;;10.90;97.60;;;;;;6311822;22;20025;-76
2023/12/29 02:25:22;;;;;;;4.65;1.00;;;10.90;97.60;;;;;;6285933;22;20014;-76
2023/12/29 02:27:57;;;;;;;8.07;1.20;;;10.90;97.70;;;;;;6281147;22;20125;-76
2023/12/29 02:30:30;;;;;;;5.22;0.50;;;10.90;97.70;;;;;;6309204;22;20455;-76
2023/12/29 02:33:05;;;;;;;6.22;0.82;;;10.70;98.00;;;;;;6311856;22;20452;-76
2023/12/29 02:35:37;;;;;;;6.47;0.98;;;10.60;98.40;;;;;;6312046;22;20050;-76
2023/12/29 02:38:04;;;;;;;7.32;1.10;;;10.50;98.80;;;;;;6312004;22;20553;-76
2023/12/29 02:40:32;;;;;;;4.95;0.80;;;10.40;99.10;;;;;;6280576;22;20101;-76
2023/12/29 02:42:59;;;;;;;8.68;1.38;;;10.40;99.30;;;;;;6306720;22;20030;-76
2023/12/29 02:45:27;;;;;;;2.50;0.70;;;10.40;99.50;;;;;;6280899;22;20046;-76
2023/12/29 02:47:54;;;;;;;5.50;1.33;;;10.40;99.60;;;;;;6280736;22;20019;-76
2023/12/29 02:50:21;;;;;;;3.90;0.80;;;10.50;99.70;;;;;;6306573;22;20467;-76
2023/12/29 02:52:48;;;;;;;4.03;0.90;;;10.50;99.70;;;;;;6280945;22;20330;-76
2023/12/29 02:55:15;;;;;;;6.28;1.50;;;10.50;99.70;;;;;;6281019;22;20065;-76
2023/12/29 02:57:43;;;;;;;5.95;1.65;;;10.60;99.70;;;;;;6280689;22;20441;-76
2023/12/29 03:00:10;;;;;;;7.35;1.00;;;10.60;99.90;;;;;;6281019;22;20086;-76
2023/12/29 03:02:37;;;;;;;8.35;0.90;;;10.60;99.70;;;;;;6280990;22;20015;-77
2023/12/29 03:05:05;;;;;;;3.95;0.75;;;10.60;99.70;;;;;;6280594;22;20018;-77
2023/12/29 03:07:32;;;;;;;5.22;0.88;;;10.60;99.70;;;;;;6307683;22;20042;-77
2023/12/29 03:09:59;;;;;;;4.95;1.27;;;10.60;99.70;;;;;;6281043;22;20015;-77
2023/12/29 03:12:26;;;;;;;7.07;1.05;;;10.60;99.70;;;;;;6280633;22;20025;-77
2023/12/29 03:14:53;;;;;;;4.70;1.50;;;10.60;99.80;;;;;;6306262;22;20011;-77
2023/12/29 03:17:20;;;;;;;7.65;1.02;;;10.60;99.80;;;;;;6306343;22;20393;-77
2023/12/29 03:19:47;;;;;;;5.63;1.10;;;10.50;99.90;;;;;;6280875;22;20357;-77
2023/12/29 03:22:15;;;;;;;5.15;0.90;;;10.40;99.90;;;;;;6280225;22;20353;-77
2023/12/29 03:24:42;;;;;;;3.65;0.93;;;10.40;99.90;;;;;;6280551;22;20047;-77
2023/12/29 03:27:09;;;;;;;7.32;1.02;;;10.30;99.90;;;;;;6306114;22;20046;-77
2023/12/29 03:29:37;;;;;;;5.47;1.02;;;10.30;99.90;;;;;;6305888;22;20019;-77
2023/12/29 03:32:04;;;;;;;3.80;0.60;;;10.30;99.90;;;;;;6306072;22;20026;-77
2023/12/29 03:34:32;;;;;;;10.38;0.93;;;10.30;99.90;;;;;;6280064;22;20022;-77
2023/12/29 03:36:59;;;;;;;14.25;1.08;;;10.30;99.90;;;;;;6279784;22;20026;-77
2023/12/29 03:39:26;;;;;;;10.90;1.45;;;10.40;99.90;;;;;;6294948;22;20046;-77
2023/12/29 03:41:53;;;;;;;9.02;1.13;;;10.40;99.90;;;;;;6285643;22;20019;-77
2023/12/29 03:44:20;;;;;;;6.40;1.10;;;10.40;99.90;;;;;;6260054;22;20026;-76
2023/12/29 03:46:49;;;;;;;9.30;1.20;;;10.40;99.90;;;;;;6338617;22;20010;-77
2023/12/29 03:49:16;;;;;;;7.82;1.60;;;10.30;99.90;;;;;;6285981;22;20010;-77
2023/12/29 03:51:43;;;;;;;6.97;1.02;;;10.30;99.90;;;;;;6311419;22;20018;-77
2023/12/29 03:54:11;;;;;;;8.90;1.20;;;10.40;99.90;;;;;;6285719;22;20050;-77
2023/12/29 03:56:38;;;;;;;6.38;1.02;;;10.40;99.90;;;;;;6311705;22;20076;-77
2023/12/29 03:59:05;;;;;;;7.25;1.58;;;10.50;99.90;;;;;;6285554;22;20448;-76
2023/12/29 04:01:34;;;;;;;6.55;1.20;;;10.60;99.70;;;;;;6311285;22;20026;-77
2023/12/29 04:04:01;;;;;;;10.45;1.35;;;10.60;99.60;;;;;;6311177;22;20026;-77
2023/12/29 04:06:28;;;;;;;7.53;1.48;;;10.60;99.50;;;;;;6311432;22;20015;-77
2023/12/29 04:08:55;;;;;;;6.88;1.23;;;10.60;99.50;;;;;;6285706;22;20444;-76
2023/12/29 04:11:22;;;;;;;9.82;1.58;;;10.60;99.30;;;;;;6260009;22;20065;-77
2023/12/29 04:13:49;;;;;;;10.10;1.45;;;10.70;99.20;;;;;;6311244;22;20072;-77
2023/12/29 04:16:19;;;;;;;8.50;1.50;;;10.70;98.90;;;;;;6285655;22;20022;-77
2023/12/29 04:18:46;;;;;;;14.95;2.35;;;10.80;98.50;;;;;;6286140;22;20076;-77
2023/12/29 04:21:14;;;;;;;10.15;1.48;;;10.90;98.00;;;;;;6311502;22;20076;-77
2023/12/29 04:23:41;;;;;;;9.98;1.83;;;11.00;97.90;;;;;;6285641;22;20445;-77
2023/12/29 04:26:08;;;;;;;7.25;1.08;;;10.90;97.50;;;;;;6338250;22;20463;-77
2023/12/29 04:28:36;;;;;;;12.43;2.08;;;11.00;97.30;;;;;;6285412;22;20019;-77
2023/12/29 04:31:03;;;;;;;8.07;1.48;;;11.00;96.90;;;;;;6311322;22;20015;-77
2023/12/29 04:33:31;;;;;;;8.52;1.80;;;11.00;96.90;;;;;;6338473;22;20403;-77
2023/12/29 04:35:58;;;;;;;9.13;1.20;;;11.00;96.80;;;;;;6338294;22;20097;-76
2023/12/29 04:38:25;;;;;;;8.40;1.50;;;11.00;96.80;;;;;;6311202;22;20019;-77
2023/12/29 04:40:52;;;;;;;10.15;2.08;;;11.00;96.90;;;;;;6285118;22;20106;-77
2023/12/29 04:43:19;;;;;;;10.35;1.63;;;11.00;96.80;;;;;;6285305;22;20026;-77
2023/12/29 04:45:46;;;;;;;14.65;1.50;;;11.00;96.60;;;;;;6310714;22;20027;-77
2023/12/29 04:48:13;;;;;;;11.38;1.85;;;10.90;96.60;;;;;;6312081;22;20067;-77
2023/12/29 04:50:39;;;;;;;7.68;1.15;;;11.00;96.80;;;;;;6313220;22;20045;-77
2023/12/29 04:53:06;;;;;;;8.55;1.70;;;11.00;96.60;;;;;;6313035;22;20019;-77
2023/12/29 04:55:33;;;;;;;8.82;1.27;;;11.00;96.50;;;;;;6340445;22;20045;-77
2023/12/29 04:58:00;;;;;;;8.73;1.42;;;11.00;96.50;;;;;;6323462;22;20015;-77
2023/12/29 05:00:28;;;;;;;12.98;1.67;;;11.00;96.10;;;;;;6323054;22;20021;-77
2023/12/29 05:02:55;;;;;;;8.90;1.63;;;11.00;96.00;;;;;;6301512;22;20045;-77
2023/12/29 05:05:21;;;;;;;11.48;1.75;;;11.00;95.70;;;;;;6296844;22;20517;-77
2023/12/29 05:07:48;;;;;;;11.93;1.58;;;11.00;95.80;;;;;;6315251;22;20019;-77
2023/12/29 05:10:15;;;;;;;9.68;1.50;;;11.00;95.70;;;;;;6313727;22;20011;-77
2023/12/29 05:12:42;;;;;;;11.07;1.40;;;11.10;95.60;;;;;;6287583;22;20449;-77
2023/12/29 05:15:09;;;;;;;10.43;1.67;;;11.10;95.40;;;;;;6287192;22;20018;-77
2023/12/29 05:17:38;;;;;;;10.10;1.80;;;11.10;95.20;;;;;;6338932;22;20414;-77
2023/12/29 05:20:09;;;;;;;10.85;2.05;;;11.10;95.10;;;;;;6287564;22;20453;-77
2023/12/29 05:22:36;;;;;;;12.90;2.10;;;11.10;95.00;;;;;;6312748;22;20334;-77
2023/12/29 05:25:04;;;;;;;8.52;1.67;;;11.10;95.00;;;;;;6287007;22;20072;-77
2023/12/29 05:27:31;;;;;;;9.68;1.90;;;11.00;94.90;;;;;;6261261;22;20018;-77
2023/12/29 05:29:59;;;;;;;9.07;1.58;;;11.00;94.90;;;;;;6287069;22;20026;-77
2023/12/29 05:32:26;;;;;;;11.93;2.25;;;11.00;94.90;;;;;;6286959;22;20023;-77
2023/12/29 05:34:53;;;;;;;13.18;1.60;;;11.00;94.90;;;;;;6286810;22;20019;-77
2023/12/29 05:37:20;;;;;;;8.52;1.40;;;11.00;94.80;;;;;;6261443;22;20072;-77
2023/12/29 05:39:48;;;;;;;7.75;1.50;;;11.00;94.80;;;;;;6287051;22;20026;-77
2023/12/29 05:42:15;;;;;;;7.78;1.77;;;11.00;94.80;;;;;;6339788;22;20069;-77
2023/12/29 05:44:42;;;;;;;11.30;2.13;;;10.90;94.90;;;;;;6261485;22;20022;-77
2023/12/29 05:47:09;;;;;;;8.88;1.40;;;11.00;94.90;;;;;;6312708;22;20015;-77
2023/12/29 05:49:39;;;;;;;11.48;1.63;;;10.90;94.80;;;;;;6286628;22;20027;-77
2023/12/29 05:52:06;;;;;;;10.50;1.60;;;10.90;94.80;;;;;;6313135;22;20025;-77
2023/12/29 05:54:34;;;;;;;13.57;1.52;;;10.90;94.90;;;;;;6339523;22;20072;-77
2023/12/29 05:57:01;;;;;;;14.05;1.80;;;10.90;95.00;;;;;;6339917;22;20019;-77
2023/12/29 05:59:28;;;;;;;11.30;2.33;;;10.90;95.10;;;;;;6339515;22;20026;-77
2023/12/29 06:01:56;;;;;;;7.60;1.10;;;10.80;95.00;;;;;;6312489;22;20019;-77
2023/12/29 06:04:23;;;;;;;13.32;1.80;;;10.80;95.00;;;;;;6312701;22;20033;-77
2023/12/29 06:06:50;;;;;;;10.15;1.50;;;10.80;94.90;;;;;;6312349;22;20086;-77
2023/12/29 06:09:18;;;;;;;10.50;1.83;;;10.80;95.00;;;;;;6286431;22;20022;-77
2023/12/29 06:11:45;;;;;;;10.02;1.67;;;10.80;95.00;;;;;;6312145;22;20014;-77
2023/12/29 06:14:12;;;;;;;11.50;1.63;;;10.80;95.10;;;;;;6312041;22;20348;-77
2023/12/29 06:16:39;;;;;;;9.35;1.50;;;10.80;95.20;;;;;;6312159;22;20038;-77
2023/12/29 06:19:08;;;;;;;6.65;1.55;;;10.80;95.20;;;;;;6312015;22;20057;-77
2023/12/29 06:21:42;;;;;;;9.20;1.27;;;10.80;95.50;;;;;;6339563;22;20093;-77
2023/12/29 06:24:11;;;;;;;7.35;2.15;;;10.80;95.40;;;;;;6339606;22;20018;-77
2023/12/29 06:26:43;;;;;;;9.05;1.40;;;10.70;95.50;;;;;;6312491;22;20032;-77
2023/12/29 06:29:10;;;;;;;8.32;1.42;;;10.70;95.60;;;;;;6286464;22;20027;-77
2023/12/29 06:31:41;;;;;;;9.60;1.40;;;10.70;95.60;;;;;;6311761;22;20115;-77
2023/12/29 06:34:09;;;;;;;9.82;1.08;;;10.70;95.70;;;;;;6339480;22;20014;-77
2023/12/29 06:36:36;;;;;;;13.25;1.50;;;10.70;95.70;;;;;;6286717;22;20042;-77
2023/12/29 06:39:03;;;;;;;6.63;1.35;;;10.70;95.80;;;;;;6286447;22;20026;-77
2023/12/29 06:41:30;;;;;;;9.32;1.30;;;10.70;95.90;;;;;;6312338;22;20400;-77
2023/12/29 06:43:57;;;;;;;2.85;0.77;;;10.70;95.90;;;;;;6281170;22;20023;-77
2023/12/29 06:46:25;;;;;;;9.57;1.35;;;10.70;96.00;;;;;;6284940;22;20015;-77
2023/12/29 06:48:51;;;;;;;5.78;1.00;;;10.70;96.10;;;;;;6311975;22;20010;-77
2023/12/29 06:51:19;;;;;;;7.80;1.65;;;10.70;96.20;;;;;;6311817;22;20038;-77
2023/12/29 06:53:49;;;;;;;5.05;0.98;;;10.70;96.20;;;;;;6286592;22;20064;-77
2023/12/29 06:56:17;;;;;;;7.72;1.05;;;10.70;96.30;;;;;;6283939;22;20023;-76
2023/12/29 06:58:45;;;;;;;9.20;1.00;;;10.70;96.40;;;;;;6311883;22;20057;-77
2023/12/29 07:01:14;;;;;;;7.95;1.38;;;10.70;96.40;;;;;;6339119;22;20015;-77
2023/12/29 07:03:41;;;;;;;7.00;1.00;;;10.70;96.40;;;;;;6311881;22;20015;-76
2023/12/29 07:06:10;;;;;;;5.38;0.95;;;10.80;96.50;;;;;;6311792;22;20531;-77
2023/12/29 07:08:37;;;;;;;7.90;1.67;;;10.70;96.60;;;;;;6280743;22;20019;-77
2023/12/29 07:11:04;;;;;;;4.22;0.63;;;10.60;96.90;;;;;;6287365;22;20053;-77
2023/12/29 07:13:31;;;;;;;8.43;1.00;;;10.30;97.50;;;;;;6280870;22;20015;-77
2023/12/29 07:15:58;;;;;;;7.57;0.90;;;10.20;98.30;;;;;;6306218;22;20015;-77
2023/12/29 07:18:25;;;;;;;7.05;1.63;;;10.00;98.80;;;;;;6337925;22;20075;-77
2023/12/29 07:20:52;;;;;;;6.00;0.77;;;9.90;99.40;;;;;;6286201;22;20092;-77
2023/12/29 07:23:19;;;;;;;4.75;0.70;;;9.80;99.70;;;;;;6311763;22;20040;-77
2023/12/29 07:25:48;;;;;;;7.90;0.82;;;9.70;99.90;;;;;;6339108;22;20022;-77
2023/12/29 07:28:15;;;;;;;7.10;0.80;;;9.60;99.90;;;;;;6311513;22;20018;-77
2023/12/29 07:30:42;;;;;;;5.93;0.88;;;9.60;99.90;;;;;;6338977;22;20433;-76
2023/12/29 07:33:09;;;;;;;5.82;0.90;;;9.60;99.90;;;;;;6285865;22;20018;-76
2023/12/29 07:35:36;;;;;;;8.48;0.95;;;9.50;99.90;;;;;;6311706;22;20038;-76
2023/12/29 07:38:03;;;;;;;4.93;0.95;;;9.50;99.90;;;;;;6285737;22;20029;-76
2023/12/29 07:40:30;;;;;;;3.42;0.93;;;9.50;99.90;;;;;;6285352;22;20054;-77
2023/12/29 07:42:58;;;;;;;4.65;0.88;;;9.50;99.90;;;;;;6338966;22;20019;-76
2023/12/29 07:45:25;;;;;;;6.05;1.02;;;9.50;99.90;;;;;;6338912;22;20022;-76
2023/12/29 07:47:52;;;;;;;4.80;1.00;;;9.50;99.90;;;;;;6338918;22;20011;-76
2023/12/29 07:50:19;;;;;;;8.80;1.30;;;9.50;99.90;;;;;;6311514;22;20071;-77
2023/12/29 07:52:46;;;;;;;13.32;2.05;;;9.50;99.90;;;;;;6285991;22;20022;-79
2023/12/29 07:55:16;;;;;;;3.60;1.00;;;9.50;99.90;;;;;;6311522;22;20428;-79
2023/12/29 07:57:43;;;;;;;8.63;1.17;;;9.50;99.90;;;;;;6285597;22;20057;-78
2023/12/29 08:00:11;;;;;;;3.67;1.10;;;9.50;99.90;;;;;;6311000;22;20032;-80
2023/12/29 08:02:38;;;;;;;8.25;1.33;;;9.50;99.90;;;;;;6311186;22;20023;-80
2023/12/29 08:05:08;;;;;;;8.00;1.98;;;9.40;99.90;;;;;;6311178;22;20023;-80
2023/12/29 08:07:38;;;;;;;4.43;0.82;;;9.50;99.90;;;;;;6305870;22;20015;-81
2023/12/29 08:10:06;;;;;;;2.92;0.70;;;9.50;99.90;;;;;;6305929;22;20011;-81
2023/12/29 08:12:34;;;;;;;4.30;1.35;;;9.50;99.90;;;;;;6305870;22;20384;-80
2023/12/29 08:15:02;;;;;;;5.82;1.45;;;9.50;99.90;;;;;;6280405;22;20023;-79
2023/12/29 08:17:31;;;;;;;7.15;1.23;;;9.50;99.90;;;;;;6311016;22;20023;-78
2023/12/29 08:19:58;;;;;;;6.47;1.10;;;9.50;99.90;;;;;;6312053;22;20068;-78
2023/12/29 08:22:25;;;;;;;4.25;1.15;;;9.50;99.90;;;;;;6338824;22;20072;-78
2023/12/29 08:24:52;;;;;;;6.50;1.08;;;9.50;99.90;;;;;;6261575;22;20049;-77
2023/12/29 08:27:24;;;;;;;3.45;0.68;;;9.50;99.90;;;;;;6310677;22;20065;-77
2023/12/29 08:29:52;;;;;;;;;;;9.50;99.90;;;;;;6314479;22;20015;-79
2023/12/29 08:32:18;;;;;;;12.55;2.08;;;9.50;99.90;;;;;;6287508;22;19922;-78
2023/12/29 08:34:46;;;;;;;6.20;1.45;;;9.50;99.90;;;;;;6313036;22;20018;-78
2023/12/29 08:37:19;;;;;;;4.35;1.00;;;9.50;99.90;;;;;;6312780;22;20019;-78
2023/12/29 08:39:47;;;;;;;6.70;1.10;;;9.50;99.90;;;;;;6313435;22;20019;-77
2023/12/29 08:42:15;;;;;;;6.25;1.42;;;9.60;99.90;;;;;;6313557;22;20097;-78
2023/12/29 08:44:42;;;;;;;8.07;1.40;;;9.60;99.90;;;;;;6313140;22;20023;-78
2023/12/29 08:47:09;;;;;;;6.32;1.13;;;9.60;99.90;;;;;;6313262;22;20387;-78
2023/12/29 08:49:38;;;;;;;2.83;1.20;;;9.70;99.90;;;;;;6265897;22;20023;-77
2023/12/29 08:52:05;;;;;;;3.70;1.35;;;9.70;99.90;;;;;;6360997;22;20011;-76
2023/12/29 08:54:32;;;;;;;3.47;1.00;;;9.80;99.90;;;;;;6303441;22;20015;-76
2023/12/29 08:56:59;;;;;;;6.45;1.10;;;9.80;99.90;;;;;;6321288;22;20472;-76
2023/12/29 08:59:26;;;;;;;5.55;1.33;;;9.80;99.90;;;;;;6341950;22;20093;-76
2023/12/29 09:01:53;;;;;;;8.52;1.75;;;9.80;99.90;;;;;;6340800;22;20023;-78
2023/12/29 09:04:21;;;;;;;6.05;1.33;;;9.90;99.90;;;;;;6313670;22;20021;-77
2023/12/29 09:06:48;;;;;;;3.47;1.10;;;9.80;99.90;;;;;;6312869;22;20353;-78
2023/12/29 09:09:15;;;;;;;6.05;1.00;;;9.90;99.90;;;;;;6258739;22;20453;-78
2023/12/29 09:11:42;;;;;;;4.88;0.70;;;9.90;99.90;;;;;;6313246;22;20015;-78
2023/12/29 09:14:09;;;;;;;4.82;0.88;;;10.00;99.90;;;;;;6312663;22;20493;-79
2023/12/29 09:16:36;;;;;;;3.67;1.15;;;10.00;99.90;;;;;;6281709;22;20069;-78
2023/12/29 09:19:04;;;;;;;4.30;0.88;;;10.00;99.90;;;;;;6308047;22;20015;-79
2023/12/29 09:21:51;;;;;;;3.05;0.80;;;10.00;99.90;;;;;;6286835;22;20452;-79
2023/12/29 09:24:18;;;;;;;5.35;1.00;;;10.00;99.90;;;;;;6310366;22;20016;-79
2023/12/29 09:26:45;;;;;;;3.28;1.08;;;10.10;99.90;;;;;;6261491;22;20080;-80
2023/12/29 09:29:12;;;;;;;4.78;0.90;;;10.10;99.90;;;;;;6287349;22;20064;-78
2023/12/29 09:31:39;;;;;;;6.30;0.68;;;10.20;99.90;;;;;;6340576;22;20021;-80
2023/12/29 09:34:07;;;;;;;3.90;0.60;;;10.20;99.90;;;;;;6312036;22;20021;-78
2023/12/29 09:36:34;;;;;;;3.55;0.70;;;10.30;99.90;;;;;;6287265;22;20025;-79
2023/12/29 09:39:02;;;;;;;3.95;0.88;;;10.30;99.90;;;;;;6281600;22;20019;-78
2023/12/29 09:41:33;;;;;;;4.60;0.90;;;10.30;99.90;;;;;;6287372;22;20027;-78
2023/12/29 09:44:04;;;;;;;2.40;0.55;;;10.40;99.90;;;;;;6312577;22;20033;-78
2023/12/29 09:46:43;;;;;;;1.88;0.52;;;10.40;99.90;;;;;;6339922;22;20022;-79
2023/12/29 09:49:18;;;;;;;2.88;0.70;;;10.40;99.90;;;;;;6289177;22;20046;-78
2023/12/29 09:51:46;;;;;;;4.32;0.80;;;10.40;99.90;;;;;;6312707;22;20018;-78
2023/12/29 09:54:15;;;;;;;4.55;0.60;;;10.40;99.90;;;;;;6312587;22;20022;-78
2023/12/29 09:56:42;;;;;;;1.55;0.70;;;10.40;99.90;;;;;;6281708;22;20023;-78
2023/12/29 09:59:11;;;;;;;3.45;0.93;;;10.40;99.90;;;;;;6282352;22;20019;-79
2023/12/29 10:01:41;;;;;;;2.65;0.57;;;10.40;99.90;;;;;;6312901;22;20038;-78
2023/12/29 10:04:09;;;;;;;1.65;0.77;;;10.50;99.90;;;;;;6287223;22;20083;-78
2023/12/29 10:06:38;;;;;;;4.85;1.08;;;10.50;99.90;;;;;;6312413;22;20019;-81
2023/12/29 10:09:10;;;;;;;4.35;0.90;;;10.60;99.90;;;;;;6312997;22;20029;-78
2023/12/29 10:11:38;;;;;;;4.60;1.00;;;10.60;99.90;;;;;;6312208;22;20018;-80
2023/12/29 10:14:49;;;;;;;4.15;1.20;;;10.70;99.90;;;;;;6312570;22;20014;-89
2023/12/29 10:17:39;;;;;;;2.83;0.82;;;10.80;99.90;;;;;;6287553;22;20025;-88
2023/12/29 10:20:30;;;;;;;4.53;0.70;;;10.70;99.90;;;;;;6287424;22;20027;-86
2023/12/29 10:23:31;;;;;;;3.17;0.75;;;10.80;99.90;;;;;;6244192;22;20023;-87
2023/12/29 10:25:58;;;;;;;3.90;0.70;;;10.90;99.90;;;;;;6308039;22;20020;-87
2023/12/29 10:28:25;;;;;;;3.30;0.95;;;10.90;99.90;;;;;;6261196;22;20026;-87
2023/12/29 10:30:52;;;;;;;3.65;0.93;;;10.90;99.90;;;;;;6256522;22;20019;-87
2023/12/29 10:33:24;;;;;;;1.48;0.63;;;10.90;99.90;;;;;;6261799;22;20068;-82
2023/12/29 10:36:06;;;;;;;4.57;0.70;;;10.90;99.90;;;;;;6288673;22;20018;-88
2023/12/29 10:38:34;;;;;;;;;;;10.90;99.90;;;;;;6262843;22;20025;-84
2023/12/29 10:41:18;;;;;;;3.15;0.88;;;10.90;99.90;;;;;;6287072;22;19925;-86
2023/12/29 10:43:52;;;;;;;1.88;0.80;;;10.90;99.90;;;;;;6287264;22;20030;-84
2023/12/29 10:46:20;;;;;;;2.58;0.60;;;10.90;99.90;;;;;;6285677;22;20212;-85
2023/12/29 10:48:48;;;;;;;2.28;0.88;;;10.90;99.90;;;;;;6262088;22;20018;-86
2023/12/29 10:51:15;;;;;;;3.60;0.60;;;10.90;99.90;;;;;;6258516;22;20019;-84
2023/12/29 10:53:55;;;;;;;1.73;0.73;;;11.00;99.90;;;;;;6261294;22;20441;-85
2023/12/29 10:56:23;;;;;;;2.75;0.45;;;11.00;99.90;;;;;;6310624;22;20023;-85
2023/12/29 10:59:00;;;;;;;1.85;0.95;;;11.00;99.90;;;;;;6313177;22;20413;-87
2023/12/29 11:01:27;;;;;;;3.08;0.65;;;11.10;99.90;;;;;;6286739;22;20015;-84
2023/12/29 11:04:02;;;;;;;1.90;0.50;;;11.10;99.90;;;;;;6286455;22;20023;-88
2023/12/29 11:06:30;;;;;;;4.18;1.00;;;11.20;99.90;;;;;;6287286;22;20023;-87
2023/12/29 11:08:57;;;;;;;1.88;0.63;;;11.20;99.90;;;;;;6312177;22;20064;-84
2023/12/29 11:11:25;;;;;;;1.38;0.60;;;11.20;99.90;;;;;;6261595;22;20014;-86
2023/12/29 11:13:53;;;;;;;2.80;0.80;;;11.20;99.90;;;;;;6287125;22;20023;-86
2023/12/29 11:16:22;;;;;;;2.58;0.60;;;11.10;99.90;;;;;;6312154;22;20025;-79
2023/12/29 11:18:51;;;;;;;1.83;0.60;;;11.10;99.90;;;;;;6311915;22;20405;-79
2023/12/29 11:21:21;;;;;;;5.30;0.90;;;11.10;99.90;;;;;;6312132;22;20391;-85
2023/12/29 11:23:48;;;;;;;5.30;0.80;;;11.10;99.90;;;;;;6312206;22;20015;-86
2023/12/29 11:26:16;;;;;;;4.60;0.88;;;11.20;99.90;;;;;;6280954;22;20045;-87
2023/12/29 11:28:46;;;;;;;3.40;1.50;;;11.20;99.90;;;;;;6286741;22;20019;-88
2023/12/29 11:31:13;;;;;;;2.63;0.70;;;11.30;99.70;;;;;;6262846;22;20014;-86
2023/12/29 11:33:44;;;;;;;1.58;0.70;;;11.30;99.50;;;;;;6286890;22;20019;-87
2023/12/29 11:36:22;;;;;;;3.28;0.80;;;11.40;99.50;;;;;;6286402;22;20022;-85
2023/12/29 11:39:38;;;;;;;4.88;0.93;;;11.40;99.00;;;;;;6312406;22;20398;-88
2023/12/29 11:42:21;;;;;;;5.43;0.90;;;11.40;98.80;;;;;;6285516;22;20050;-88
2023/12/29 11:44:48;;;;;;;4.90;0.98;;;11.40;98.70;;;;;;6287193;22;20046;-87
2023/12/29 11:47:35;;;;;;;4.63;1.25;;;11.40;98.50;;;;;;6261124;22;20026;-81
2023/12/29 11:50:03;;;;;;;3.20;1.00;;;11.40;98.50;;;;;;6286213;22;20019;-81
2023/12/29 11:52:34;;;;;;;3.53;0.95;;;11.40;98.30;;;;;;6311354;22;20050;-85
2023/12/29 11:55:12;;;;;;;4.20;0.88;;;11.40;98.20;;;;;;6311790;22;20470;-81
2023/12/29 11:57:42;;;;;;;4.38;1.02;;;11.40;98.10;;;;;;6311158;22;20038;-79
2023/12/29 12:00:11;;;;;;;3.63;0.70;;;11.40;98.10;;;;;;6310463;22;20014;-79
2023/12/29 12:02:38;;;;;;;4.07;0.77;;;11.40;98.00;;;;;;6312099;22;20097;-79
2023/12/29 12:05:09;;;;;;;2.70;1.23;;;11.40;98.00;;;;;;6312631;22;20090;-87
2023/12/29 12:07:39;;;;;;;5.60;0.60;;;11.40;98.00;;;;;;6311983;22;20026;-87
2023/12/29 12:10:30;;;;;;;8.57;1.05;;;11.40;98.00;;;;;;6286325;22;20025;-85
2023/12/29 12:12:59;;;;;;;3.83;0.85;;;11.40;97.60;;;;;;6286375;22;20015;-84
2023/12/29 12:15:26;;;;;;;4.47;0.90;;;11.40;97.70;;;;;;6286115;22;20050;-85
2023/12/29 12:17:54;;;;;;;6.35;1.17;;;11.40;97.70;;;;;;6311913;22;20025;-86
2023/12/29 12:20:22;;;;;;;4.78;0.82;;;11.40;97.50;;;;;;6260959;22;20330;-86
2023/12/29 12:22:56;;;;;;;7.13;0.80;;;11.50;97.60;;;;;;6311380;22;20026;-84
2023/12/29 12:25:30;;;;;;;6.68;1.08;;;11.50;97.30;;;;;;6285514;22;20019;-78
2023/12/29 12:27:58;;;;;;;6.15;1.15;;;11.50;97.30;;;;;;6311086;22;20039;-78
2023/12/29 12:30:25;;;;;;;3.40;0.70;;;11.50;97.10;;;;;;6285121;22;20022;-79
2023/12/29 12:32:59;;;;;;;6.40;0.88;;;11.50;97.20;;;;;;6338789;22;20011;-79
2023/12/29 12:35:27;;;;;;;4.95;0.98;;;11.50;97.20;;;;;;6286491;22;20038;-84
2023/12/29 12:38:12;;;;;;;6.03;0.73;;;11.50;97.20;;;;;;6286388;22;20109;-79
2023/12/29 12:40:40;;;;;;;5.95;0.55;;;11.50;97.40;;;;;;6302190;22;20327;-79
2023/12/29 12:43:07;;;;;;;6.68;0.85;;;11.50;97.50;;;;;;6361864;22;20015;-83
2023/12/29 12:45:52;;;;;;;6.32;1.42;;;11.50;97.50;;;;;;6295977;22;20022;-85
2023/12/29 12:48:28;;;;;;;4.32;0.65;;;11.50;97.50;;;;;;6311971;22;20022;-83
2023/12/29 12:50:57;;;;;;;6.70;1.20;;;11.50;97.50;;;;;;6312432;22;20379;-83
2023/12/29 12:53:24;;;;;;;6.88;0.70;;;11.50;97.60;;;;;;6285797;22;20015;-84
2023/12/29 12:55:52;;;;;;;6.05;0.77;;;11.50;97.60;;;;;;6286484;22;20018;-84
2023/12/29 12:58:20;;;;;;;6.88;0.80;;;11.40;97.60;;;;;;6285646;22;20109;-83